sensor_id;sensor_type;location;lat;lon;timestamp;temperature;humidity
58554;DHT22;48119;53.218;6.576;2024-01-15T00:02:11;7.00;99.90
58554;DHT22;48119;53.218;6.576;2024-01-15T00:04:40;7.00;99.90
58554;DHT22;48119;53.218;6.576;2024-01-15T00:07:07;7.00;99.90
58554;DHT22;48119;53.218;6.576;2024-01-15T00:09:33;6.90;99.90
58554;DHT22;48119;53.218;6.576;2024-01-15T00:11:59;6.90;99.90
58554;DHT22;48119;53.218;6.576;2024-01-15T00:14:25;6.80;99.90
58554;DHT22;48119;53.218;6.576;2024-01-15T00:16:54;6.80;99.90
58554;DHT22;48119;53.218;6.576;2024-01-15T00:19:22;6.80;99.90
58554;DHT22;48119;53.218;6.576;2024-01-15T00:21:49;6.70;99.90
58554;DHT22;48119;53.218;6.576;2024-01-15T00:24:17;6.70;99.90
58554;DHT22;48119;53.218;6.576;2024-01-15T00:26:43;6.60;99.90
58554;DHT22;48119;53.218;6.576;2024-01-15T00:29:12;6.70;99.90
58554;DHT22;48119;53.218;6.576;2024-01-15T00:31:37;6.70;99.90
58554;DHT22;48119;53.218;6.576;2024-01-15T00:34:03;6.70;99.90
58554;DHT22;48119;53.218;6.576;2024-01-15T00:36:31;6.60;99.90
58554;DHT22;48119;53.218;6.576;2024-01-15T00:38:57;6.70;99.90
58554;DHT22;48119;53.218;6.576;2024-01-15T00:41:25;6.70;99.90
58554;DHT22;48119;53.218;6.576;2024-01-15T00:43:59;6.70;99.90
58554;DHT22;48119;53.218;6.576;2024-01-15T00:46:56;6.60;99.90
58554;DHT22;48119;53.218;6.576;2024-01-15T00:49:39;6.60;99.90
58554;DHT22;48119;53.218;6.576;2024-01-15T00:52:20;6.60;99.90
58554;DHT22;48119;53.218;6.576;2024-01-15T00:54:55;6.60;99.90
58554;DHT22;48119;53.218;6.576;2024-01-15T01:01:39;6.60;99.90
58554;DHT22;48119;53.218;6.576;2024-01-15T01:04:09;6.70;99.90
58554;DHT22;48119;53.218;6.576;2024-01-15T01:06:35;6.70;99.90
58554;DHT22;48119;53.218;6.576;2024-01-15T01:09:01;6.70;99.90
58554;DHT22;48119;53.218;6.576;2024-01-15T01:11:26;6.70;99.90
58554;DHT22;48119;53.218;6.576;2024-01-15T01:13:52;6.70;99.90
58554;DHT22;48119;53.218;6.576;2024-01-15T01:16:18;6.70;99.90
58554;DHT22;48119;53.218;6.576;2024-01-15T01:18:44;6.70;99.90
58554;DHT22;48119;53.218;6.576;2024-01-15T01:21:09;6.70;99.90
58554;DHT22;48119;53.218;6.576;2024-01-15T01:23:35;6.70;99.90
58554;DHT22;48119;53.218;6.576;2024-01-15T01:26:04;6.70;99.90
58554;DHT22;48119;53.218;6.576;2024-01-15T01:28:29;6.70;99.90
58554;DHT22;48119;53.218;6.576;2024-01-15T01:30:55;6.70;99.90
58554;DHT22;48119;53.218;6.576;2024-01-15T01:33:21;6.70;99.90
58554;DHT22;48119;53.218;6.576;2024-01-15T01:35:47;6.70;99.90
58554;DHT22;48119;53.218;6.576;2024-01-15T01:38:16;6.70;99.90
58554;DHT22;48119;53.218;6.576;2024-01-15T01:40:42;6.70;99.90
58554;DHT22;48119;53.218;6.576;2024-01-15T01:43:09;6.70;99.90
58554;DHT22;48119;53.218;6.576;2024-01-15T01:45:35;6.80;99.90
58554;DHT22;48119;53.218;6.576;2024-01-15T01:48:01;6.80;99.90
58554;DHT22;48119;53.218;6.576;2024-01-15T01:50:29;6.80;99.90
58554;DHT22;48119;53.218;6.576;2024-01-15T01:52:58;6.80;99.90
58554;DHT22;48119;53.218;6.576;2024-01-15T01:55:26;6.80;99.90
58554;DHT22;48119;53.218;6.576;2024-01-15T01:57:58;6.80;99.90
58554;DHT22;48119;53.218;6.576;2024-01-15T02:00:24;6.80;99.90
58554;DHT22;48119;53.218;6.576;2024-01-15T02:02:49;6.80;99.90
58554;DHT22;48119;53.218;6.576;2024-01-15T02:05:18;6.80;99.90
58554;DHT22;48119;53.218;6.576;2024-01-15T02:07:44;6.90;99.90
58554;DHT22;48119;53.218;6.576;2024-01-15T02:10:14;6.90;99.90
58554;DHT22;48119;53.218;6.576;2024-01-15T02:12:40;6.90;99.90
58554;DHT22;48119;53.218;6.576;2024-01-15T02:15:10;6.90;99.90
58554;DHT22;48119;53.218;6.576;2024-01-15T02:17:57;7.00;99.90
58554;DHT22;48119;53.218;6.576;2024-01-15T02:20:23;7.00;99.90
58554;DHT22;48119;53.218;6.576;2024-01-15T02:22:49;7.00;99.90
58554;DHT22;48119;53.218;6.576;2024-01-15T02:25:14;7.00;99.90
58554;DHT22;48119;53.218;6.576;2024-01-15T02:27:41;6.90;99.90
58554;DHT22;48119;53.218;6.576;2024-01-15T02:30:08;7.00;99.90
58554;DHT22;48119;53.218;6.576;2024-01-15T02:32:35;7.00;99.90
58554;DHT22;48119;53.218;6.576;2024-01-15T02:35:01;7.00;99.90
58554;DHT22;48119;53.218;6.576;2024-01-15T02:37:26;6.90;99.90
58554;DHT22;48119;53.218;6.576;2024-01-15T02:39:52;6.90;99.90
58554;DHT22;48119;53.218;6.576;2024-01-15T02:42:18;6.90;99.90
58554;DHT22;48119;53.218;6.576;2024-01-15T02:44:44;7.00;99.90
58554;DHT22;48119;53.218;6.576;2024-01-15T02:47:09;7.00;99.90
58554;DHT22;48119;53.218;6.576;2024-01-15T02:49:35;6.90;99.90
58554;DHT22;48119;53.218;6.576;2024-01-15T02:52:01;7.00;99.90
58554;DHT22;48119;53.218;6.576;2024-01-15T02:54:27;6.90;99.90
58554;DHT22;48119;53.218;6.576;2024-01-15T02:56:52;6.90;99.90
58554;DHT22;48119;53.218;6.576;2024-01-15T02:59:18;6.90;99.90
58554;DHT22;48119;53.218;6.576;2024-01-15T03:01:44;6.90;99.90
58554;DHT22;48119;53.218;6.576;2024-01-15T03:04:09;6.90;99.90
58554;DHT22;48119;53.218;6.576;2024-01-15T03:06:35;6.90;99.90
58554;DHT22;48119;53.218;6.576;2024-01-15T03:09:01;7.00;99.90
58554;DHT22;48119;53.218;6.576;2024-01-15T03:11:27;7.00;99.90
58554;DHT22;48119;53.218;6.576;2024-01-15T03:13:52;7.00;99.90
58554;DHT22;48119;53.218;6.576;2024-01-15T03:16:18;7.00;99.90
58554;DHT22;48119;53.218;6.576;2024-01-15T03:18:47;7.00;99.90
58554;DHT22;48119;53.218;6.576;2024-01-15T03:21:13;7.00;99.90
58554;DHT22;48119;53.218;6.576;2024-01-15T03:23:39;7.00;99.90
58554;DHT22;48119;53.218;6.576;2024-01-15T03:26:05;7.00;99.90
58554;DHT22;48119;53.218;6.576;2024-01-15T03:28:30;7.00;99.90
58554;DHT22;48119;53.218;6.576;2024-01-15T03:30:56;7.00;99.90
58554;DHT22;48119;53.218;6.576;2024-01-15T03:33:22;7.00;99.90
58554;DHT22;48119;53.218;6.576;2024-01-15T03:35:48;7.00;99.90
58554;DHT22;48119;53.218;6.576;2024-01-15T03:38:16;7.00;99.90
58554;DHT22;48119;53.218;6.576;2024-01-15T03:40:42;7.00;99.90
58554;DHT22;48119;53.218;6.576;2024-01-15T03:43:08;7.00;99.90
58554;DHT22;48119;53.218;6.576;2024-01-15T03:45:34;7.00;99.90
58554;DHT22;48119;53.218;6.576;2024-01-15T03:48:04;7.00;99.90
58554;DHT22;48119;53.218;6.576;2024-01-15T03:50:35;7.10;99.90
58554;DHT22;48119;53.218;6.576;2024-01-15T03:53:01;7.00;99.90
58554;DHT22;48119;53.218;6.576;2024-01-15T03:55:27;7.10;99.90
58554;DHT22;48119;53.218;6.576;2024-01-15T03:57:55;7.10;99.90
58554;DHT22;48119;53.218;6.576;2024-01-15T04:00:22;7.10;99.90
58554;DHT22;48119;53.218;6.576;2024-01-15T04:02:48;7.10;99.90
58554;DHT22;48119;53.218;6.576;2024-01-15T04:05:16;7.10;99.90
58554;DHT22;48119;53.218;6.576;2024-01-15T04:07:42;7.10;99.90
58554;DHT22;48119;53.218;6.576;2024-01-15T04:10:08;7.10;99.90
58554;DHT22;48119;53.218;6.576;2024-01-15T04:12:34;7.10;99.90
58554;DHT22;48119;53.218;6.576;2024-01-15T04:15:03;7.10;99.90
58554;DHT22;48119;53.218;6.576;2024-01-15T04:17:32;7.10;99.90
58554;DHT22;48119;53.218;6.576;2024-01-15T04:20:01;7.10;99.90
58554;DHT22;48119;53.218;6.576;2024-01-15T04:22:27;7.10;99.90
58554;DHT22;48119;53.218;6.576;2024-01-15T04:24:53;7.10;99.90
58554;DHT22;48119;53.218;6.576;2024-01-15T04:27:18;7.10;99.90
58554;DHT22;48119;53.218;6.576;2024-01-15T04:29:44;7.00;99.90
58554;DHT22;48119;53.218;6.576;2024-01-15T04:32:10;7.00;99.90
58554;DHT22;48119;53.218;6.576;2024-01-15T04:34:38;7.00;99.90
58554;DHT22;48119;53.218;6.576;2024-01-15T04:37:04;7.00;99.90
58554;DHT22;48119;53.218;6.576;2024-01-15T04:39:32;7.00;99.90
58554;DHT22;48119;53.218;6.576;2024-01-15T04:41:58;7.00;99.90
58554;DHT22;48119;53.218;6.576;2024-01-15T04:44:24;6.90;99.90
58554;DHT22;48119;53.218;6.576;2024-01-15T04:46:50;6.90;99.90
58554;DHT22;48119;53.218;6.576;2024-01-15T05:11:51;6.70;99.90
58554;DHT22;48119;53.218;6.576;2024-01-15T05:14:17;6.80;99.90
58554;DHT22;48119;53.218;6.576;2024-01-15T05:16:49;6.80;99.90
58554;DHT22;48119;53.218;6.576;2024-01-15T05:19:15;6.80;99.90
58554;DHT22;48119;53.218;6.576;2024-01-15T05:21:41;6.80;99.90
58554;DHT22;48119;53.218;6.576;2024-01-15T05:24:08;6.80;99.90
58554;DHT22;48119;53.218;6.576;2024-01-15T05:26:34;6.80;99.90
58554;DHT22;48119;53.218;6.576;2024-01-15T05:29:00;6.80;99.90
58554;DHT22;48119;53.218;6.576;2024-01-15T05:31:26;6.80;99.90
58554;DHT22;48119;53.218;6.576;2024-01-15T05:33:51;6.80;99.90
58554;DHT22;48119;53.218;6.576;2024-01-15T05:36:17;6.70;99.90
58554;DHT22;48119;53.218;6.576;2024-01-15T05:38:43;6.80;99.90
58554;DHT22;48119;53.218;6.576;2024-01-15T05:41:08;6.70;99.90
58554;DHT22;48119;53.218;6.576;2024-01-15T05:43:34;6.70;99.90
58554;DHT22;48119;53.218;6.576;2024-01-15T05:46:00;6.70;99.90
58554;DHT22;48119;53.218;6.576;2024-01-15T05:48:25;6.60;99.90
58554;DHT22;48119;53.218;6.576;2024-01-15T05:50:51;6.60;99.90
58554;DHT22;48119;53.218;6.576;2024-01-15T05:53:17;6.60;99.90
58554;DHT22;48119;53.218;6.576;2024-01-15T05:55:42;6.70;99.90
58554;DHT22;48119;53.218;6.576;2024-01-15T05:58:08;6.60;99.90
58554;DHT22;48119;53.218;6.576;2024-01-15T06:00:34;6.60;99.90
58554;DHT22;48119;53.218;6.576;2024-01-15T06:03:01;6.60;99.90
58554;DHT22;48119;53.218;6.576;2024-01-15T06:05:27;6.60;99.90
58554;DHT22;48119;53.218;6.576;2024-01-15T06:07:53;6.70;99.90
58554;DHT22;48119;53.218;6.576;2024-01-15T06:10:19;6.70;99.90
58554;DHT22;48119;53.218;6.576;2024-01-15T06:12:45;6.70;99.90
58554;DHT22;48119;53.218;6.576;2024-01-15T06:15:11;6.70;99.90
58554;DHT22;48119;53.218;6.576;2024-01-15T06:17:37;6.70;99.90
58554;DHT22;48119;53.218;6.576;2024-01-15T06:20:03;6.70;99.90
58554;DHT22;48119;53.218;6.576;2024-01-15T06:22:29;6.60;99.90
58554;DHT22;48119;53.218;6.576;2024-01-15T06:24:55;6.60;99.90
58554;DHT22;48119;53.218;6.576;2024-01-15T06:27:21;6.60;99.90
58554;DHT22;48119;53.218;6.576;2024-01-15T06:29:47;6.60;99.90
58554;DHT22;48119;53.218;6.576;2024-01-15T06:32:13;6.60;99.90
58554;DHT22;48119;53.218;6.576;2024-01-15T06:34:39;6.60;99.90
58554;DHT22;48119;53.218;6.576;2024-01-15T06:37:05;6.60;99.90
58554;DHT22;48119;53.218;6.576;2024-01-15T06:39:31;6.70;99.90
58554;DHT22;48119;53.218;6.576;2024-01-15T06:41:57;6.60;99.90
58554;DHT22;48119;53.218;6.576;2024-01-15T06:44:23;6.70;99.90
58554;DHT22;48119;53.218;6.576;2024-01-15T06:46:49;6.60;99.90
58554;DHT22;48119;53.218;6.576;2024-01-15T06:49:14;6.60;99.90
58554;DHT22;48119;53.218;6.576;2024-01-15T06:51:40;6.50;99.90
58554;DHT22;48119;53.218;6.576;2024-01-15T06:54:07;6.50;99.90
58554;DHT22;48119;53.218;6.576;2024-01-15T06:56:32;6.40;99.90
58554;DHT22;48119;53.218;6.576;2024-01-15T06:58:58;6.40;99.90
58554;DHT22;48119;53.218;6.576;2024-01-15T07:01:25;6.40;99.90
58554;DHT22;48119;53.218;6.576;2024-01-15T07:03:51;6.40;99.90
58554;DHT22;48119;53.218;6.576;2024-01-15T07:06:17;6.50;99.90
58554;DHT22;48119;53.218;6.576;2024-01-15T07:08:43;6.50;99.90
58554;DHT22;48119;53.218;6.576;2024-01-15T07:11:08;6.50;99.90
58554;DHT22;48119;53.218;6.576;2024-01-15T07:13:36;6.40;99.90
58554;DHT22;48119;53.218;6.576;2024-01-15T07:16:02;6.40;99.90
58554;DHT22;48119;53.218;6.576;2024-01-15T07:18:28;6.30;99.90
58554;DHT22;48119;53.218;6.576;2024-01-15T07:20:54;6.30;99.90
58554;DHT22;48119;53.218;6.576;2024-01-15T07:23:19;6.30;99.90
58554;DHT22;48119;53.218;6.576;2024-01-15T07:25:45;6.30;99.90
58554;DHT22;48119;53.218;6.576;2024-01-15T07:28:11;6.30;99.90
58554;DHT22;48119;53.218;6.576;2024-01-15T07:30:37;6.30;99.90
58554;DHT22;48119;53.218;6.576;2024-01-15T07:33:05;6.30;99.90
58554;DHT22;48119;53.218;6.576;2024-01-15T07:35:32;6.30;99.90
58554;DHT22;48119;53.218;6.576;2024-01-15T07:37:57;6.30;99.90
58554;DHT22;48119;53.218;6.576;2024-01-15T07:40:23;6.30;99.90
58554;DHT22;48119;53.218;6.576;2024-01-15T07:42:51;6.30;99.90
58554;DHT22;48119;53.218;6.576;2024-01-15T07:45:16;6.30;99.90
58554;DHT22;48119;53.218;6.576;2024-01-15T07:47:42;6.30;99.90
58554;DHT22;48119;53.218;6.576;2024-01-15T07:50:08;6.30;99.90
58554;DHT22;48119;53.218;6.576;2024-01-15T07:52:34;6.30;99.90
58554;DHT22;48119;53.218;6.576;2024-01-15T07:55:00;6.30;99.90
58554;DHT22;48119;53.218;6.576;2024-01-15T07:57:26;6.30;99.90
58554;DHT22;48119;53.218;6.576;2024-01-15T07:59:51;6.30;99.90
58554;DHT22;48119;53.218;6.576;2024-01-15T08:02:17;6.30;99.90
58554;DHT22;48119;53.218;6.576;2024-01-15T08:04:43;6.30;99.90
58554;DHT22;48119;53.218;6.576;2024-01-15T08:07:09;6.40;99.90
58554;DHT22;48119;53.218;6.576;2024-01-15T08:09:35;6.30;99.90
58554;DHT22;48119;53.218;6.576;2024-01-15T08:12:01;6.30;99.90
58554;DHT22;48119;53.218;6.576;2024-01-15T08:14:27;6.30;99.90
58554;DHT22;48119;53.218;6.576;2024-01-15T08:16:52;6.30;99.90
58554;DHT22;48119;53.218;6.576;2024-01-15T08:19:18;6.30;99.90
58554;DHT22;48119;53.218;6.576;2024-01-15T08:21:45;6.30;99.90
58554;DHT22;48119;53.218;6.576;2024-01-15T08:24:11;6.20;99.90
58554;DHT22;48119;53.218;6.576;2024-01-15T08:26:37;6.20;99.90
58554;DHT22;48119;53.218;6.576;2024-01-15T08:29:02;6.20;99.90
58554;DHT22;48119;53.218;6.576;2024-01-15T08:31:28;6.30;99.90
58554;DHT22;48119;53.218;6.576;2024-01-15T08:33:54;6.20;99.90
58554;DHT22;48119;53.218;6.576;2024-01-15T08:36:21;6.30;99.90
58554;DHT22;48119;53.218;6.576;2024-01-15T08:38:47;6.20;99.90
58554;DHT22;48119;53.218;6.576;2024-01-15T08:41:13;6.30;99.90
58554;DHT22;48119;53.218;6.576;2024-01-15T08:43:39;6.30;99.90
58554;DHT22;48119;53.218;6.576;2024-01-15T08:46:05;6.30;99.90
58554;DHT22;48119;53.218;6.576;2024-01-15T08:48:31;6.30;99.90
58554;DHT22;48119;53.218;6.576;2024-01-15T08:50:57;6.30;99.90
58554;DHT22;48119;53.218;6.576;2024-01-15T08:53:22;6.30;99.90
58554;DHT22;48119;53.218;6.576;2024-01-15T08:55:49;6.30;99.90
58554;DHT22;48119;53.218;6.576;2024-01-15T08:58:15;6.30;99.90
58554;DHT22;48119;53.218;6.576;2024-01-15T09:00:41;6.30;99.90
58554;DHT22;48119;53.218;6.576;2024-01-15T09:03:07;6.30;99.90
58554;DHT22;48119;53.218;6.576;2024-01-15T09:05:34;6.30;99.90
58554;DHT22;48119;53.218;6.576;2024-01-15T09:08:00;6.30;99.90
58554;DHT22;48119;53.218;6.576;2024-01-15T09:10:26;6.30;99.90
58554;DHT22;48119;53.218;6.576;2024-01-15T09:12:52;6.30;99.90
58554;DHT22;48119;53.218;6.576;2024-01-15T09:15:17;6.30;99.90
58554;DHT22;48119;53.218;6.576;2024-01-15T09:17:45;6.30;99.90
58554;DHT22;48119;53.218;6.576;2024-01-15T09:20:11;6.30;99.90
58554;DHT22;48119;53.218;6.576;2024-01-15T09:22:40;6.30;99.90
58554;DHT22;48119;53.218;6.576;2024-01-15T09:25:08;6.30;99.90
58554;DHT22;48119;53.218;6.576;2024-01-15T09:27:35;6.30;99.90
58554;DHT22;48119;53.218;6.576;2024-01-15T09:30:02;6.30;99.90
58554;DHT22;48119;53.218;6.576;2024-01-15T09:32:28;6.30;99.90
58554;DHT22;48119;53.218;6.576;2024-01-15T09:34:54;6.30;99.90
58554;DHT22;48119;53.218;6.576;2024-01-15T09:37:19;6.30;99.90
58554;DHT22;48119;53.218;6.576;2024-01-15T09:39:45;6.20;99.90
58554;DHT22;48119;53.218;6.576;2024-01-15T09:42:11;6.30;99.90
58554;DHT22;48119;53.218;6.576;2024-01-15T09:44:37;6.30;99.90
58554;DHT22;48119;53.218;6.576;2024-01-15T09:47:04;6.30;99.90
58554;DHT22;48119;53.218;6.576;2024-01-15T09:49:31;6.30;99.90
58554;DHT22;48119;53.218;6.576;2024-01-15T09:51:58;6.40;99.90
58554;DHT22;48119;53.218;6.576;2024-01-15T09:54:24;6.40;99.90
58554;DHT22;48119;53.218;6.576;2024-01-15T09:56:50;6.40;99.90
58554;DHT22;48119;53.218;6.576;2024-01-15T09:59:17;6.40;99.90
58554;DHT22;48119;53.218;6.576;2024-01-15T10:01:44;6.40;99.90
58554;DHT22;48119;53.218;6.576;2024-01-15T10:04:11;6.40;99.90
58554;DHT22;48119;53.218;6.576;2024-01-15T10:06:44;6.40;99.90
58554;DHT22;48119;53.218;6.576;2024-01-15T10:09:12;6.50;99.90
58554;DHT22;48119;53.218;6.576;2024-01-15T10:11:41;6.50;99.90
58554;DHT22;48119;53.218;6.576;2024-01-15T10:14:09;6.50;99.90
58554;DHT22;48119;53.218;6.576;2024-01-15T10:16:41;6.50;99.90
58554;DHT22;48119;53.218;6.576;2024-01-15T10:19:10;6.40;99.90
58554;DHT22;48119;53.218;6.576;2024-01-15T10:21:38;6.50;99.90
58554;DHT22;48119;53.218;6.576;2024-01-15T10:24:04;6.40;99.90
58554;DHT22;48119;53.218;6.576;2024-01-15T10:26:31;6.40;99.90
58554;DHT22;48119;53.218;6.576;2024-01-15T10:29:01;6.40;99.90
58554;DHT22;48119;53.218;6.576;2024-01-15T10:31:27;6.40;99.90
58554;DHT22;48119;53.218;6.576;2024-01-15T10:33:54;6.40;99.90
58554;DHT22;48119;53.218;6.576;2024-01-15T10:36:20;6.50;99.90
58554;DHT22;48119;53.218;6.576;2024-01-15T10:38:46;6.40;99.90
58554;DHT22;48119;53.218;6.576;2024-01-15T10:41:13;6.40;99.90
58554;DHT22;48119;53.218;6.576;2024-01-15T10:43:38;6.50;99.90
58554;DHT22;48119;53.218;6.576;2024-01-15T10:46:07;6.50;99.90
58554;DHT22;48119;53.218;6.576;2024-01-15T10:48:33;6.50;99.90
58554;DHT22;48119;53.218;6.576;2024-01-15T10:51:01;6.60;99.90
58554;DHT22;48119;53.218;6.576;2024-01-15T10:53:38;6.60;99.90
58554;DHT22;48119;53.218;6.576;2024-01-15T10:56:06;6.60;99.90
58554;DHT22;48119;53.218;6.576;2024-01-15T10:58:33;6.60;99.90
58554;DHT22;48119;53.218;6.576;2024-01-15T11:00:59;6.50;99.90
58554;DHT22;48119;53.218;6.576;2024-01-15T11:03:27;6.50;99.90
58554;DHT22;48119;53.218;6.576;2024-01-15T11:05:53;6.50;99.90
58554;DHT22;48119;53.218;6.576;2024-01-15T11:08:20;6.50;99.90
58554;DHT22;48119;53.218;6.576;2024-01-15T11:10:50;6.50;99.90
58554;DHT22;48119;53.218;6.576;2024-01-15T11:13:40;6.50;99.90
58554;DHT22;48119;53.218;6.576;2024-01-15T11:16:07;6.50;99.90
58554;DHT22;48119;53.218;6.576;2024-01-15T11:23:44;6.50;99.90
58554;DHT22;48119;53.218;6.576;2024-01-15T11:29:08;6.50;99.90
58554;DHT22;48119;53.218;6.576;2024-01-15T11:34:07;6.50;99.90
58554;DHT22;48119;53.218;6.576;2024-01-15T11:42:02;6.60;99.90
58554;DHT22;48119;53.218;6.576;2024-01-15T11:44:31;6.50;99.90
58554;DHT22;48119;53.218;6.576;2024-01-15T11:47:10;6.50;99.90
58554;DHT22;48119;53.218;6.576;2024-01-15T11:49:58;6.50;99.90
58554;DHT22;48119;53.218;6.576;2024-01-15T11:52:25;6.60;99.90
58554;DHT22;48119;53.218;6.576;2024-01-15T11:57:51;6.50;99.90
58554;DHT22;48119;53.218;6.576;2024-01-15T12:00:17;6.50;99.90
58554;DHT22;48119;53.218;6.576;2024-01-15T12:02:44;6.40;99.90
58554;DHT22;48119;53.218;6.576;2024-01-15T12:05:12;6.40;99.90
58554;DHT22;48119;53.218;6.576;2024-01-15T12:07:42;6.40;99.90
58554;DHT22;48119;53.218;6.576;2024-01-15T12:10:13;6.30;99.90
58554;DHT22;48119;53.218;6.576;2024-01-15T12:13:05;6.30;99.90
58554;DHT22;48119;53.218;6.576;2024-01-15T12:15:32;6.30;99.90
58554;DHT22;48119;53.218;6.576;2024-01-15T12:18:00;6.30;99.90
58554;DHT22;48119;53.218;6.576;2024-01-15T12:20:29;6.30;99.90
58554;DHT22;48119;53.218;6.576;2024-01-15T12:22:55;6.30;99.90
58554;DHT22;48119;53.218;6.576;2024-01-15T12:25:25;6.30;99.90
58554;DHT22;48119;53.218;6.576;2024-01-15T12:27:53;6.30;99.90
58554;DHT22;48119;53.218;6.576;2024-01-15T12:30:19;6.30;99.90
58554;DHT22;48119;53.218;6.576;2024-01-15T12:32:45;6.40;99.90
58554;DHT22;48119;53.218;6.576;2024-01-15T12:35:13;6.40;99.90
58554;DHT22;48119;53.218;6.576;2024-01-15T12:37:43;6.40;99.90
58554;DHT22;48119;53.218;6.576;2024-01-15T12:40:10;6.40;99.90
58554;DHT22;48119;53.218;6.576;2024-01-15T12:42:36;6.50;99.90
58554;DHT22;48119;53.218;6.576;2024-01-15T12:45:03;6.60;99.90
58554;DHT22;48119;53.218;6.576;2024-01-15T12:47:30;6.60;99.90
58554;DHT22;48119;53.218;6.576;2024-01-15T12:49:58;6.60;99.90
58554;DHT22;48119;53.218;6.576;2024-01-15T12:52:29;6.60;99.90
58554;DHT22;48119;53.218;6.576;2024-01-15T12:54:55;6.70;99.90
58554;DHT22;48119;53.218;6.576;2024-01-15T12:57:22;6.70;99.90
58554;DHT22;48119;53.218;6.576;2024-01-15T12:59:49;6.70;99.90
58554;DHT22;48119;53.218;6.576;2024-01-15T13:02:15;6.70;99.90
58554;DHT22;48119;53.218;6.576;2024-01-15T13:04:42;6.70;99.90
58554;DHT22;48119;53.218;6.576;2024-01-15T13:07:08;6.80;99.90
58554;DHT22;48119;53.218;6.576;2024-01-15T13:09:35;6.80;99.90
58554;DHT22;48119;53.218;6.576;2024-01-15T13:12:02;6.80;99.90
58554;DHT22;48119;53.218;6.576;2024-01-15T13:14:28;6.80;99.90
58554;DHT22;48119;53.218;6.576;2024-01-15T13:16:54;6.80;99.90
58554;DHT22;48119;53.218;6.576;2024-01-15T13:19:21;6.80;99.90
58554;DHT22;48119;53.218;6.576;2024-01-15T13:21:48;6.80;99.90
58554;DHT22;48119;53.218;6.576;2024-01-15T13:24:15;6.80;99.90
58554;DHT22;48119;53.218;6.576;2024-01-15T13:26:41;6.80;99.90
58554;DHT22;48119;53.218;6.576;2024-01-15T13:29:07;6.80;99.90
58554;DHT22;48119;53.218;6.576;2024-01-15T13:31:33;6.80;99.90
58554;DHT22;48119;53.218;6.576;2024-01-15T13:33:59;6.80;99.90
58554;DHT22;48119;53.218;6.576;2024-01-15T13:36:26;6.70;99.90
58554;DHT22;48119;53.218;6.576;2024-01-15T13:38:52;6.80;99.90
58554;DHT22;48119;53.218;6.576;2024-01-15T13:41:20;6.80;99.90
58554;DHT22;48119;53.218;6.576;2024-01-15T13:43:51;6.80;99.90
58554;DHT22;48119;53.218;6.576;2024-01-15T13:46:24;6.90;99.90
58554;DHT22;48119;53.218;6.576;2024-01-15T13:48:50;6.90;99.90
58554;DHT22;48119;53.218;6.576;2024-01-15T13:51:15;6.90;99.90
58554;DHT22;48119;53.218;6.576;2024-01-15T13:53:41;6.90;99.90
58554;DHT22;48119;53.218;6.576;2024-01-15T13:56:07;6.90;99.90
58554;DHT22;48119;53.218;6.576;2024-01-15T13:58:36;6.90;99.90
58554;DHT22;48119;53.218;6.576;2024-01-15T14:01:03;6.80;99.90
58554;DHT22;48119;53.218;6.576;2024-01-15T14:03:32;6.70;99.90
58554;DHT22;48119;53.218;6.576;2024-01-15T14:05:58;6.70;99.90
58554;DHT22;48119;53.218;6.576;2024-01-15T14:08:24;6.60;99.90
58554;DHT22;48119;53.218;6.576;2024-01-15T14:10:51;6.60;99.90
58554;DHT22;48119;53.218;6.576;2024-01-15T14:13:17;6.60;99.90
58554;DHT22;48119;53.218;6.576;2024-01-15T14:15:43;6.60;99.90
58554;DHT22;48119;53.218;6.576;2024-01-15T14:18:09;6.60;99.90
58554;DHT22;48119;53.218;6.576;2024-01-15T14:20:34;6.50;99.90
58554;DHT22;48119;53.218;6.576;2024-01-15T14:23:00;6.50;99.90
58554;DHT22;48119;53.218;6.576;2024-01-15T14:25:26;6.50;99.90
58554;DHT22;48119;53.218;6.576;2024-01-15T14:27:52;6.50;99.90
58554;DHT22;48119;53.218;6.576;2024-01-15T14:30:17;6.50;99.90
58554;DHT22;48119;53.218;6.576;2024-01-15T14:32:43;6.50;99.90
58554;DHT22;48119;53.218;6.576;2024-01-15T14:35:10;6.50;99.90
58554;DHT22;48119;53.218;6.576;2024-01-15T14:37:39;6.50;99.90
58554;DHT22;48119;53.218;6.576;2024-01-15T14:40:09;6.50;99.90
58554;DHT22;48119;53.218;6.576;2024-01-15T14:42:36;6.50;99.90
58554;DHT22;48119;53.218;6.576;2024-01-15T14:45:03;6.50;99.90
58554;DHT22;48119;53.218;6.576;2024-01-15T14:47:30;6.50;99.90
58554;DHT22;48119;53.218;6.576;2024-01-15T14:49:56;6.50;99.90
58554;DHT22;48119;53.218;6.576;2024-01-15T14:52:23;6.60;99.90
58554;DHT22;48119;53.218;6.576;2024-01-15T14:54:49;6.60;99.90
58554;DHT22;48119;53.218;6.576;2024-01-15T14:57:15;6.60;99.90
58554;DHT22;48119;53.218;6.576;2024-01-15T14:59:41;6.60;99.90
58554;DHT22;48119;53.218;6.576;2024-01-15T15:02:07;6.60;99.90
58554;DHT22;48119;53.218;6.576;2024-01-15T15:04:32;6.60;99.90
58554;DHT22;48119;53.218;6.576;2024-01-15T15:06:58;6.60;99.90
58554;DHT22;48119;53.218;6.576;2024-01-15T15:09:24;6.60;99.90
58554;DHT22;48119;53.218;6.576;2024-01-15T15:11:50;6.50;99.90
58554;DHT22;48119;53.218;6.576;2024-01-15T15:14:18;6.60;99.90
58554;DHT22;48119;53.218;6.576;2024-01-15T15:16:44;6.50;99.90
58554;DHT22;48119;53.218;6.576;2024-01-15T15:19:12;6.60;99.90
58554;DHT22;48119;53.218;6.576;2024-01-15T15:21:38;6.60;99.90
58554;DHT22;48119;53.218;6.576;2024-01-15T15:24:04;6.60;99.90
58554;DHT22;48119;53.218;6.576;2024-01-15T15:26:30;6.60;99.90
58554;DHT22;48119;53.218;6.576;2024-01-15T15:28:55;6.60;99.90
58554;DHT22;48119;53.218;6.576;2024-01-15T15:31:22;6.60;99.90
58554;DHT22;48119;53.218;6.576;2024-01-15T15:33:47;6.60;99.90
58554;DHT22;48119;53.218;6.576;2024-01-15T15:36:13;6.60;99.90
58554;DHT22;48119;53.218;6.576;2024-01-15T15:38:39;6.60;99.90
58554;DHT22;48119;53.218;6.576;2024-01-15T15:41:05;6.60;99.90
58554;DHT22;48119;53.218;6.576;2024-01-15T15:43:33;6.60;99.90
58554;DHT22;48119;53.218;6.576;2024-01-15T15:46:00;6.50;99.90
58554;DHT22;48119;53.218;6.576;2024-01-15T15:48:26;6.50;99.90
58554;DHT22;48119;53.218;6.576;2024-01-15T15:50:52;6.50;99.90
58554;DHT22;48119;53.218;6.576;2024-01-15T15:53:19;6.40;99.90
58554;DHT22;48119;53.218;6.576;2024-01-15T15:55:45;6.40;99.90
58554;DHT22;48119;53.218;6.576;2024-01-15T15:58:11;6.40;99.90
58554;DHT22;48119;53.218;6.576;2024-01-15T16:00:37;6.40;99.90
58554;DHT22;48119;53.218;6.576;2024-01-15T16:03:03;6.40;99.90
58554;DHT22;48119;53.218;6.576;2024-01-15T16:05:29;6.40;99.90
58554;DHT22;48119;53.218;6.576;2024-01-15T16:07:55;6.40;99.90
58554;DHT22;48119;53.218;6.576;2024-01-15T16:10:21;6.40;99.90
58554;DHT22;48119;53.218;6.576;2024-01-15T16:12:46;6.30;99.90
58554;DHT22;48119;53.218;6.576;2024-01-15T16:15:20;6.30;99.90
58554;DHT22;48119;53.218;6.576;2024-01-15T16:17:49;6.20;99.90
58554;DHT22;48119;53.218;6.576;2024-01-15T16:20:18;6.20;99.90
58554;DHT22;48119;53.218;6.576;2024-01-15T16:22:45;6.20;99.90
58554;DHT22;48119;53.218;6.576;2024-01-15T16:25:11;6.20;99.90
58554;DHT22;48119;53.218;6.576;2024-01-15T16:27:37;6.20;99.90
58554;DHT22;48119;53.218;6.576;2024-01-15T16:30:04;6.20;99.90